createdAt,value
2018-02-14T00:01:52.931Z,78.18
2018-02-14T00:04:19.287Z,78.52
2018-02-14T00:06:45.739Z,77.42
2018-02-14T00:09:12.140Z,76.58
2018-02-14T00:11:38.492Z,78.21
2018-02-14T00:14:04.889Z,76.59
2018-02-14T00:16:31.269Z,76.73
2018-02-14T00:18:57.622Z,77.58
2018-02-14T00:21:24.022Z,77.27
2018-02-14T00:23:50.373Z,77.10
2018-02-14T00:26:16.809Z,76.85
2018-02-14T00:28:43.225Z,76.55
2018-02-14T00:31:09.577Z,77.18
2018-02-14T00:33:35.954Z,77.72
2018-02-14T00:36:02.369Z,78.05
2018-02-14T00:38:28.721Z,78.51
2018-02-14T00:40:55.076Z,79.03
2018-02-14T00:43:21.497Z,79.21
2018-02-14T00:45:47.873Z,79.32
2018-02-14T00:48:14.229Z,80.12
2018-02-14T00:50:40.609Z,79.58
2018-02-14T00:53:06.961Z,80.18
2018-02-14T00:55:33.324Z,79.86
2018-02-14T00:57:59.725Z,78.94
2018-02-14T01:00:26.081Z,78.57
2018-02-14T01:02:52.489Z,78.61
2018-02-14T01:05:19.152Z,78.61
2018-02-14T01:07:45.583Z,77.98
2018-02-14T01:10:11.981Z,78.64
2018-02-14T01:12:38.429Z,78.45
2018-02-14T01:15:04.896Z,79.00
2018-02-14T01:17:31.297Z,78.36
2018-02-14T01:20:03.769Z,79.35
2018-02-14T01:22:30.224Z,78.12
2018-02-14T01:24:56.557Z,78.74
2018-02-14T01:27:22.966Z,77.91
2018-02-14T01:29:49.308Z,78.71
2018-02-14T01:32:15.732Z,78.37
2018-02-14T01:34:42.126Z,77.83
2018-02-14T01:37:08.517Z,76.79
2018-02-14T01:39:34.972Z,76.96
2018-02-14T01:42:01.364Z,77.61
2018-02-14T01:44:27.749Z,78.87
2018-02-14T01:46:54.186Z,79.12
2018-02-14T01:49:20.582Z,78.37
2018-02-14T01:51:46.989Z,77.96
2018-02-14T01:54:13.385Z,78.29
2018-02-14T01:56:39.792Z,78.87
2018-02-14T01:59:06.336Z,78.68
2018-02-14T02:01:32.826Z,79.28
2018-02-14T02:03:59.429Z,79.43
2018-02-14T02:06:25.920Z,79.41
2018-02-14T02:08:52.312Z,77.89
2018-02-14T02:11:18.704Z,78.27
2018-02-14T02:13:45.076Z,78.38
2018-02-14T02:16:11.512Z,79.27
2018-02-14T02:18:37.961Z,78.44
2018-02-14T02:21:04.396Z,79.51
2018-02-14T02:23:30.840Z,79.76
2018-02-14T02:25:57.260Z,78.17
2018-02-14T02:28:23.728Z,79.08
2018-02-14T02:30:50.129Z,79.68
2018-02-14T02:33:18.256Z,79.55
2018-02-14T02:35:44.608Z,79.98
2018-02-14T02:38:11.004Z,79.14
2018-02-14T02:40:41.349Z,77.76
2018-02-14T02:43:07.800Z,79.85
2018-02-14T02:45:34.216Z,80.40
2018-02-14T02:48:00.625Z,80.08
2018-02-14T02:50:27.226Z,79.44
2018-02-14T02:52:53.588Z,79.27
2018-02-14T02:55:20.001Z,79.16
2018-02-14T02:57:46.345Z,80.19
2018-02-14T03:00:12.812Z,79.62
2018-02-14T03:02:39.273Z,80.36
2018-02-14T03:05:05.720Z,79.85
2018-02-14T03:07:32.161Z,79.17
2018-02-14T03:09:58.554Z,79.69
2018-02-14T03:12:24.974Z,80.73
2018-02-14T03:14:51.409Z,80.81
2018-02-14T03:17:17.902Z,80.63
2018-02-14T03:19:44.321Z,80.83
2018-02-14T03:22:10.689Z,80.47
2018-02-14T03:24:37.169Z,80.61
2018-02-14T03:27:03.605Z,79.66
2018-02-14T03:29:30.061Z,79.39
2018-02-14T03:31:56.510Z,79.23
2018-02-14T03:34:22.912Z,78.87
2018-02-14T03:36:49.454Z,79.50
2018-02-14T03:39:15.839Z,79.76
2018-02-14T03:41:42.281Z,78.42
2018-02-14T03:44:08.737Z,77.84
2018-02-14T03:46:35.203Z,76.61
2018-02-14T03:49:01.738Z,76.18
2018-02-14T03:51:28.337Z,79.62
2018-02-14T03:53:54.802Z,78.88
2018-02-14T03:56:21.224Z,81.91
2018-02-14T03:58:47.695Z,82.39
2018-02-14T04:01:14.200Z,82.47
2018-02-14T04:03:40.618Z,82.96
2018-02-14T04:06:07.148Z,82.31
2018-02-14T04:08:33.629Z,81.99
2018-02-14T04:11:00.046Z,82.64
2018-02-14T04:13:26.473Z,81.23
2018-02-14T04:15:52.907Z,80.60
2018-02-14T04:18:19.284Z,79.85
2018-02-14T04:20:45.768Z,81.13
2018-02-14T04:23:12.226Z,81.82
2018-02-14T04:25:38.614Z,81.73
2018-02-14T04:28:07.181Z,81.70
2018-02-14T04:30:33.743Z,80.23
2018-02-14T04:33:00.226Z,79.95
2018-02-14T04:35:26.904Z,79.74
2018-02-14T04:37:53.266Z,78.87
2018-02-14T04:40:19.736Z,79.29
2018-02-14T04:42:46.145Z,80.07
2018-02-14T04:45:12.641Z,78.54
2018-02-14T04:47:40.892Z,79.72
2018-02-14T04:50:07.472Z,79.43
2018-02-14T04:52:33.887Z,77.60
2018-02-14T04:55:00.364Z,76.21
2018-02-14T04:57:26.815Z,75.62
2018-02-14T04:59:53.183Z,77.85
2018-02-14T05:02:19.601Z,79.53
2018-02-14T05:04:46.076Z,78.82
2018-02-14T05:07:12.740Z,80.13
2018-02-14T05:09:39.202Z,79.99
2018-02-14T05:12:05.585Z,78.54
2018-02-14T05:14:31.982Z,79.26
2018-02-14T05:16:58.568Z,80.15
2018-02-14T05:19:24.960Z,79.90
2018-02-14T05:21:51.493Z,79.87
2018-02-14T05:24:18.005Z,80.72
2018-02-14T05:26:44.416Z,81.34
2018-02-14T05:29:10.817Z,81.45
2018-02-14T05:31:37.248Z,81.01
2018-02-14T05:34:03.729Z,81.19
2018-02-14T05:36:30.173Z,80.91
2018-02-14T05:38:56.666Z,79.19
2018-02-14T05:41:23.046Z,79.06
2018-02-14T05:43:49.528Z,79.76
2018-02-14T05:46:16.008Z,81.03
2018-02-14T05:48:42.423Z,81.53
2018-02-14T05:51:08.881Z,81.61
2018-02-14T05:53:35.463Z,79.74
2018-02-14T05:56:01.947Z,77.34
2018-02-14T05:58:28.368Z,78.08
2018-02-14T06:00:54.839Z,77.93
2018-02-14T06:03:21.325Z,78.39
2018-02-14T06:05:47.693Z,80.98
2018-02-14T06:08:14.153Z,80.52
2018-02-14T06:10:40.552Z,77.99
2018-02-14T06:13:07.098Z,77.64
2018-02-14T06:15:33.673Z,80.29
2018-02-14T06:18:00.059Z,81.68
2018-02-14T06:20:26.460Z,82.57
2018-02-14T06:22:52.940Z,83.14
2018-02-14T06:25:19.530Z,83.75
2018-02-14T06:27:45.989Z,83.95
2018-02-14T06:30:12.433Z,81.31
2018-02-14T06:32:39.213Z,80.81
2018-02-14T06:35:06.308Z,82.11
2018-02-14T06:37:33.482Z,82.74
2018-02-14T06:39:59.939Z,83.17
2018-02-14T06:42:26.829Z,82.73
2018-02-14T06:44:54.542Z,82.26
2018-02-14T06:47:21.500Z,82.74
2018-02-14T06:49:48.162Z,83.57
2018-02-14T06:52:14.881Z,83.74
2018-02-14T06:54:41.389Z,83.87
2018-02-14T06:57:07.855Z,81.89
2018-02-14T06:59:35.038Z,79.77
2018-02-14T07:02:01.802Z,77.88
2018-02-14T07:04:28.358Z,79.46
2018-02-14T07:06:54.776Z,77.55
2018-02-14T07:09:21.249Z,78.76
2018-02-14T07:11:47.689Z,80.96
2018-02-14T07:14:14.238Z,82.42
2018-02-14T07:16:40.710Z,82.97
2018-02-14T07:19:07.279Z,81.46
2018-02-14T07:21:33.747Z,81.31
2018-02-14T07:24:00.194Z,78.59
2018-02-14T07:26:26.676Z,77.04
2018-02-14T07:28:53.093Z,76.75
2018-02-14T07:31:19.517Z,76.91
2018-02-14T07:33:46.027Z,80.39
2018-02-14T07:36:12.521Z,82.11
2018-02-14T07:38:39.025Z,80.98
2018-02-14T07:41:05.620Z,78.32
2018-02-14T07:43:32.073Z,81.03
2018-02-14T07:45:58.548Z,82.46
2018-02-14T07:48:25.024Z,81.50
2018-02-14T07:50:51.446Z,78.85
2018-02-14T07:53:17.966Z,76.38
2018-02-14T07:55:44.392Z,76.68
2018-02-14T07:58:10.801Z,80.24
2018-02-14T08:00:37.260Z,80.29
2018-02-14T08:03:03.748Z,78.27
2018-02-14T08:05:30.125Z,78.62
2018-02-14T08:07:56.635Z,76.54
2018-02-14T08:10:23.060Z,75.96
2018-02-14T08:12:49.457Z,76.79
2018-02-14T08:15:15.934Z,79.82
2018-02-14T08:17:42.396Z,79.22
2018-02-14T08:20:08.874Z,81.12
2018-02-14T08:22:35.387Z,83.05
2018-02-14T08:25:01.951Z,83.28
2018-02-14T08:27:28.537Z,82.07
2018-02-14T08:29:55.103Z,81.98
2018-02-14T08:32:21.588Z,79.55
2018-02-14T08:34:48.047Z,77.58
2018-02-14T08:37:14.637Z,79.26
2018-02-14T08:39:41.081Z,79.84
2018-02-14T08:42:07.565Z,80.99
2018-02-14T08:44:34.128Z,81.35
2018-02-14T08:47:00.574Z,78.19
2018-02-14T08:49:27.175Z,78.90
2018-02-14T08:51:53.660Z,80.90
2018-02-14T08:54:20.090Z,78.57
2018-02-14T08:56:46.485Z,75.99
2018-02-14T08:59:12.909Z,78.39
2018-02-14T09:01:39.447Z,80.05
2018-02-14T09:04:05.853Z,77.48
2018-02-14T09:06:32.245Z,78.26
2018-02-14T09:08:58.794Z,79.85
2018-02-14T09:11:25.156Z,82.98
2018-02-14T09:13:51.625Z,82.91
2018-02-14T09:16:18.054Z,78.64
2018-02-14T09:18:44.509Z,77.30
2018-02-14T09:21:10.935Z,77.47
2018-02-14T09:23:37.503Z,77.41
2018-02-14T09:26:03.940Z,80.96
2018-02-14T09:28:30.416Z,82.91
2018-02-14T09:30:56.869Z,82.40
2018-02-14T09:33:23.295Z,84.50
2018-02-14T09:35:49.684Z,85.11
2018-02-14T09:38:16.124Z,85.56
2018-02-14T09:40:42.479Z,85.65
2018-02-14T09:43:08.848Z,85.54
2018-02-14T09:45:35.332Z,85.60
2018-02-14T09:48:01.705Z,85.45
2018-02-14T09:50:28.143Z,84.98
2018-02-14T09:52:54.573Z,84.46
2018-02-14T09:55:21.080Z,84.88
2018-02-14T09:57:47.596Z,85.00
2018-02-14T10:00:13.999Z,84.58
2018-02-14T10:02:40.430Z,84.32
2018-02-14T10:05:06.954Z,84.53
2018-02-14T10:07:33.395Z,84.15
2018-02-14T10:09:59.868Z,83.70
2018-02-14T10:12:26.524Z,82.99
2018-02-14T10:14:52.955Z,83.76
2018-02-14T10:17:19.326Z,84.23
2018-02-14T10:19:45.876Z,84.19
2018-02-14T10:22:12.606Z,83.62
2018-02-14T10:24:39.044Z,83.93
2018-02-14T10:27:05.453Z,84.20
2018-02-14T10:29:32.145Z,84.25
2018-02-14T10:31:59.999Z,84.27
2018-02-14T10:34:27.402Z,83.43
2018-02-14T10:36:54.756Z,83.43
2018-02-14T10:39:21.305Z,83.68
2018-02-14T10:41:47.774Z,84.05
2018-02-14T10:44:14.183Z,84.17
2018-02-14T10:46:40.683Z,84.18
2018-02-14T10:49:07.101Z,83.83
2018-02-14T10:51:33.570Z,83.85
2018-02-14T10:53:59.981Z,83.91
2018-02-14T10:56:26.472Z,84.03
2018-02-14T10:58:53.044Z,83.49
2018-02-14T11:01:25.325Z,83.70
2018-02-14T11:03:51.714Z,83.64
2018-02-14T11:06:18.193Z,83.15
2018-02-14T11:08:44.707Z,82.97
2018-02-14T11:11:11.161Z,82.69
2018-02-14T11:13:37.568Z,82.26
2018-02-14T11:16:04.005Z,81.87
2018-02-14T11:18:30.544Z,81.31
2018-02-14T11:20:56.964Z,81.11
2018-02-14T11:23:23.345Z,80.80
2018-02-14T11:25:49.740Z,81.17
2018-02-14T11:28:16.171Z,81.03
2018-02-14T11:30:42.580Z,80.84
2018-02-14T11:33:09.040Z,80.76
2018-02-14T11:35:35.531Z,80.86
2018-02-14T11:38:01.908Z,80.79
2018-02-14T11:40:28.481Z,80.96
2018-02-14T11:42:54.977Z,81.42
2018-02-14T11:45:21.434Z,80.99
2018-02-14T11:47:47.885Z,80.34
2018-02-14T11:50:14.320Z,80.35
2018-02-14T11:52:40.716Z,80.38
2018-02-14T11:55:07.117Z,80.24
2018-02-14T11:57:33.517Z,80.46
2018-02-14T11:59:59.949Z,79.92
2018-02-14T12:02:26.362Z,79.83
2018-02-14T12:04:52.837Z,80.01
2018-02-14T12:07:19.258Z,79.76
2018-02-14T12:09:45.683Z,79.72
2018-02-14T12:12:19.369Z,79.73
2018-02-14T12:14:45.749Z,79.88
2018-02-14T12:17:12.262Z,80.20
2018-02-14T12:19:38.654Z,80.30
2018-02-14T12:22:05.139Z,80.67
2018-02-14T12:24:31.485Z,80.38
2018-02-14T12:26:57.925Z,79.88
2018-02-14T12:29:24.348Z,80.21
2018-02-14T12:31:50.892Z,80.07
2018-02-14T12:34:17.409Z,80.08
2018-02-14T12:36:43.853Z,80.02
2018-02-14T12:39:10.409Z,79.97
2018-02-14T12:41:36.793Z,79.86
2018-02-14T12:44:03.305Z,80.95
2018-02-14T12:46:29.777Z,81.17
2018-02-14T12:48:56.185Z,81.36
2018-02-14T12:51:22.649Z,81.86
2018-02-14T12:53:49.055Z,81.86
2018-02-14T12:56:15.451Z,81.15
2018-02-14T12:58:41.843Z,81.13
2018-02-14T13:01:08.192Z,80.20
2018-02-14T13:03:34.704Z,81.01
2018-02-14T13:06:01.052Z,80.65
2018-02-14T13:08:27.688Z,80.68
2018-02-14T13:10:54.113Z,80.60
2018-02-14T13:13:20.528Z,80.79
2018-02-14T13:15:46.984Z,80.07
2018-02-14T13:18:14.317Z,80.25
2018-02-14T13:20:40.685Z,80.20
2018-02-14T13:23:07.099Z,79.87
2018-02-14T13:25:33.561Z,79.84
2018-02-14T13:27:59.949Z,79.21
2018-02-14T13:30:26.393Z,78.34
2018-02-14T13:32:52.848Z,78.84
2018-02-14T13:35:19.223Z,78.23
2018-02-14T13:37:45.698Z,77.50
2018-02-14T13:40:12.294Z,77.95
2018-02-14T13:42:38.641Z,77.69
2018-02-14T13:45:05.006Z,77.25
2018-02-14T13:47:31.462Z,76.77
2018-02-14T13:49:57.827Z,76.81
2018-02-14T13:52:24.423Z,76.94
2018-02-14T13:54:50.896Z,75.95
2018-02-14T13:57:17.254Z,76.97
2018-02-14T13:59:43.719Z,75.97
2018-02-14T14:02:10.125Z,75.62
2018-02-14T14:04:36.591Z,75.28
2018-02-14T14:07:03.005Z,75.71
2018-02-14T14:09:29.443Z,75.42
2018-02-14T14:11:55.928Z,73.94
2018-02-14T14:14:22.386Z,72.39
2018-02-14T14:16:48.794Z,73.26
2018-02-14T14:19:15.234Z,72.98
2018-02-14T14:21:41.612Z,73.27
2018-02-14T14:24:08.028Z,74.26
2018-02-14T14:26:34.508Z,73.33
2018-02-14T14:29:00.893Z,72.11
2018-02-14T14:31:27.398Z,72.26
2018-02-14T14:33:53.932Z,71.85
2018-02-14T14:36:20.424Z,72.33
2018-02-14T14:38:46.853Z,71.48
2018-02-14T14:41:13.257Z,71.74
2018-02-14T14:43:39.809Z,71.29
2018-02-14T14:46:06.224Z,72.15
2018-02-14T14:48:32.613Z,71.95
2018-02-14T14:50:59.053Z,71.80
2018-02-14T14:53:25.504Z,72.86
2018-02-14T14:55:51.912Z,70.83
2018-02-14T14:58:18.428Z,70.61
2018-02-14T15:00:44.837Z,72.16
2018-02-14T15:03:11.406Z,72.94
2018-02-14T15:05:37.854Z,72.39
2018-02-14T15:08:04.281Z,71.80
2018-02-14T15:10:30.713Z,71.50
2018-02-14T15:12:57.152Z,70.36
2018-02-14T15:15:23.533Z,70.96
2018-02-14T15:17:49.908Z,71.53
2018-02-14T15:20:16.301Z,71.69
2018-02-14T15:22:42.736Z,71.61
2018-02-14T15:25:09.253Z,70.27
2018-02-14T15:27:35.637Z,70.70
2018-02-14T15:30:02.128Z,70.69
2018-02-14T15:32:28.559Z,70.90
2018-02-14T15:34:54.955Z,68.54
2018-02-14T15:37:21.388Z,70.01
2018-02-14T15:39:47.797Z,70.67
2018-02-14T15:42:14.269Z,68.79
2018-02-14T15:44:40.702Z,69.02
2018-02-14T15:47:07.226Z,70.49
2018-02-14T15:49:33.676Z,68.64
2018-02-14T15:52:00.084Z,67.83
2018-02-14T15:54:26.489Z,70.06
2018-02-14T15:56:52.930Z,70.47
2018-02-14T15:59:19.358Z,69.38
2018-02-14T16:01:45.788Z,67.22
2018-02-14T16:04:12.241Z,69.33
2018-02-14T16:06:38.680Z,70.96
2018-02-14T16:09:05.317Z,69.31
2018-02-14T16:11:31.725Z,68.63
2018-02-14T16:13:58.225Z,67.88
2018-02-14T16:16:24.620Z,70.01
2018-02-14T16:18:51.032Z,70.73
2018-02-14T16:21:17.473Z,69.48
2018-02-14T16:23:43.849Z,69.27
2018-02-14T16:26:10.447Z,69.24
2018-02-14T16:28:37.013Z,68.45
2018-02-14T16:31:03.584Z,69.35
2018-02-14T16:33:30.073Z,67.48
2018-02-14T16:35:56.552Z,68.80
2018-02-14T16:38:23.160Z,68.13
2018-02-14T16:40:49.548Z,66.21
2018-02-14T16:43:15.940Z,66.94
2018-02-14T16:45:42.432Z,65.77
2018-02-14T16:48:08.868Z,65.30
2018-02-14T16:50:35.382Z,65.55
2018-02-14T16:53:01.796Z,66.84
2018-02-14T16:55:28.234Z,64.34
2018-02-14T16:57:56.997Z,68.17
2018-02-14T17:00:23.665Z,65.93
2018-02-14T17:02:50.154Z,63.11
2018-02-14T17:05:16.619Z,66.89
2018-02-14T17:07:43.140Z,67.11
2018-02-14T17:10:09.573Z,62.15
2018-02-14T17:12:36.050Z,61.69
2018-02-14T17:15:02.606Z,62.72
2018-02-14T17:17:28.967Z,66.63
2018-02-14T17:19:55.440Z,61.71
2018-02-14T17:22:21.853Z,64.83
2018-02-14T17:24:48.307Z,65.17
2018-02-14T17:27:14.749Z,64.74
2018-02-14T17:29:41.166Z,63.61
2018-02-14T17:32:07.584Z,65.97
2018-02-14T17:34:34.061Z,63.25
2018-02-14T17:37:00.444Z,64.48
2018-02-14T17:39:26.828Z,64.15
2018-02-14T17:41:53.268Z,60.16
2018-02-14T17:44:19.774Z,64.79
2018-02-14T17:46:46.169Z,65.57
2018-02-14T17:49:12.609Z,62.70
2018-02-14T17:51:39.042Z,63.17
2018-02-14T17:54:05.473Z,64.50
2018-02-14T17:56:31.953Z,65.72
2018-02-14T17:58:58.401Z,63.44
2018-02-14T18:01:25.279Z,64.91
2018-02-14T18:03:52.860Z,66.85
2018-02-14T18:06:23.974Z,66.71
2018-02-14T18:08:54.133Z,66.69
2018-02-14T18:11:24.632Z,70.03
2018-02-14T18:13:58.466Z,66.35
2018-02-14T18:16:25.333Z,63.93
2018-02-14T18:18:51.716Z,63.41
2018-02-14T18:21:18.277Z,63.70
2018-02-14T18:23:44.687Z,68.71
2018-02-14T18:26:11.090Z,66.99
2018-02-14T18:28:37.622Z,62.33
2018-02-14T18:31:04.429Z,61.13
2018-02-14T18:33:30.842Z,66.44
2018-02-14T18:35:57.288Z,64.29
2018-02-14T18:38:23.666Z,66.12
2018-02-14T18:40:50.157Z,66.10
2018-02-14T18:43:16.589Z,62.50
2018-02-14T18:45:43.135Z,65.16
2018-02-14T18:48:09.549Z,64.26
2018-02-14T18:50:36.166Z,61.48
2018-02-14T18:53:02.677Z,64.00
2018-02-14T18:55:29.201Z,60.43
2018-02-14T18:57:55.671Z,62.46
2018-02-14T19:00:22.124Z,60.69
2018-02-14T19:02:48.569Z,59.85
2018-02-14T19:05:15.050Z,62.03
2018-02-14T19:07:41.457Z,61.84
2018-02-14T19:10:15.934Z,62.74
2018-02-14T19:12:42.349Z,63.57
2018-02-14T19:15:08.769Z,61.82
2018-02-14T19:17:35.152Z,61.84
2018-02-14T19:20:01.546Z,59.80
2018-02-14T19:22:27.917Z,59.61
2018-02-14T19:24:54.334Z,60.90
2018-02-14T19:27:20.743Z,63.42
2018-02-14T19:29:47.156Z,58.89
2018-02-14T19:32:13.549Z,59.07
2018-02-14T19:34:39.985Z,60.08
2018-02-14T19:37:06.397Z,62.58
2018-02-14T19:39:32.785Z,60.85
2018-02-14T19:41:59.228Z,59.78
2018-02-14T19:44:25.715Z,60.73
2018-02-14T19:46:52.341Z,59.93
2018-02-14T19:49:18.784Z,65.51
2018-02-14T19:51:45.271Z,59.53
2018-02-14T19:54:11.682Z,63.05
2018-02-14T19:56:38.045Z,62.99
2018-02-14T19:59:04.493Z,59.75
2018-02-14T20:01:31.049Z,62.18
2018-02-14T20:03:57.509Z,57.90
2018-02-14T20:06:23.968Z,63.55
2018-02-14T20:08:50.347Z,58.54
2018-02-14T20:11:16.788Z,59.60
2018-02-14T20:13:43.181Z,62.51
2018-02-14T20:16:09.673Z,57.35
2018-02-14T20:18:36.136Z,57.46
2018-02-14T20:21:02.546Z,59.51
2018-02-14T20:23:28.901Z,59.13
2018-02-14T20:25:55.385Z,66.10
2018-02-14T20:28:21.788Z,63.03
2018-02-14T20:30:48.164Z,59.35
2018-02-14T20:33:14.604Z,60.42
2018-02-14T20:35:41.183Z,65.02
2018-02-14T20:38:07.540Z,61.08
2018-02-14T20:40:33.928Z,57.99
2018-02-14T20:43:00.301Z,58.17
2018-02-14T20:45:26.753Z,57.52
2018-02-14T20:47:53.144Z,63.37
2018-02-14T20:50:19.591Z,64.18
2018-02-14T20:52:46.083Z,61.33
2018-02-14T20:55:12.518Z,63.32
2018-02-14T20:57:38.867Z,57.78
2018-02-14T21:00:05.293Z,58.68
2018-02-14T21:02:31.764Z,56.63
2018-02-14T21:04:58.161Z,57.29
2018-02-14T21:07:24.763Z,58.00
2018-02-14T21:09:52.954Z,62.56
2018-02-14T21:12:19.461Z,57.48
2018-02-14T21:14:46.225Z,56.79
2018-02-14T21:17:12.646Z,61.18
2018-02-14T21:19:39.737Z,59.56
2018-02-14T21:22:06.233Z,56.12
2018-02-14T21:24:33.784Z,56.71
2018-02-14T21:27:00.206Z,59.45
2018-02-14T21:29:26.621Z,57.30
2018-02-14T21:31:53.084Z,64.32
2018-02-14T21:34:19.510Z,59.93
2018-02-14T21:36:45.984Z,63.13
2018-02-14T21:39:12.476Z,58.01
2018-02-14T21:41:38.878Z,63.41
2018-02-14T21:44:05.468Z,57.95
2018-02-14T21:46:31.880Z,58.56
2018-02-14T21:48:58.291Z,58.76
2018-02-14T21:51:24.685Z,56.54
2018-02-14T21:53:51.072Z,57.51
2018-02-14T21:56:17.506Z,56.77
2018-02-14T21:58:43.934Z,61.33
2018-02-14T22:01:10.445Z,57.02
2018-02-14T22:03:36.923Z,56.95
2018-02-14T22:06:03.320Z,57.21
2018-02-14T22:08:29.704Z,60.54
2018-02-14T22:10:56.057Z,58.58
2018-02-14T22:13:22.459Z,60.71
2018-02-14T22:15:49.045Z,56.12
2018-02-14T22:18:15.429Z,59.64
2018-02-14T22:20:41.785Z,65.09
2018-02-14T22:23:08.223Z,55.62
2018-02-14T22:25:34.757Z,55.93
2018-02-14T22:28:01.150Z,55.06
2018-02-14T22:30:27.802Z,56.06
2018-02-14T22:32:54.257Z,60.79
2018-02-14T22:35:20.653Z,55.49
2018-02-14T22:37:47.192Z,54.34
2018-02-14T22:40:13.617Z,54.59
2018-02-14T22:42:40.113Z,54.87
2018-02-14T22:45:06.497Z,55.87
2018-02-14T22:47:33.755Z,56.75
2018-02-14T22:50:00.292Z,55.32
2018-02-14T22:52:26.680Z,53.14
2018-02-14T22:54:53.160Z,58.73
2018-02-14T22:57:19.704Z,59.06
2018-02-14T22:59:46.136Z,60.57
2018-02-14T23:02:12.603Z,60.83
2018-02-14T23:04:39.154Z,57.57
2018-02-14T23:07:05.533Z,58.29
2018-02-14T23:09:31.894Z,58.72
2018-02-14T23:11:58.234Z,65.10
2018-02-14T23:14:24.648Z,63.50
2018-02-14T23:16:51.035Z,57.14
2018-02-14T23:19:17.416Z,60.34
2018-02-14T23:21:43.820Z,54.80
2018-02-14T23:24:10.225Z,58.61
2018-02-14T23:26:36.572Z,60.29
2018-02-14T23:29:02.928Z,57.51
2018-02-14T23:31:29.373Z,62.51
2018-02-14T23:33:55.761Z,56.45
2018-02-14T23:36:22.159Z,55.55
2018-02-14T23:38:48.839Z,59.32
2018-02-14T23:41:15.186Z,59.38
2018-02-14T23:43:41.596Z,57.62
2018-02-14T23:46:07.974Z,63.84
2018-02-14T23:48:34.426Z,62.23
2018-02-14T23:51:00.818Z,59.57
2018-02-14T23:53:27.196Z,56.68
2018-02-14T23:55:53.572Z,61.57
2018-02-14T23:58:20.024Z,60.13
